Terminal Aerodrome Forecast
Issued by NWS

Home | Current Version | Previous Version | Text Only | Print | Product List | Glossary On
Versions: 1 2 3 4 5 6 7 8 9 10 11 12 13 14 15 16 17 18 19 20 21 22 23 24 25 26
000
FTUS46 KLOX 171720
TAFSBP
TAF
KSBP 171720Z 1718/1818 30008KT P6SM SCT012
     FM172100 30012KT P6SM SKC
     FM180400 31006KT P6SM SCT010
     FM180600 VRB03KT 6SM BR OVC007
     FM181000 00000KT 2SM BR OVC004=

USA.gov is the U.S. government's official web portal to all federal, state and local government web resources and services.